createdAt,value
2023-01-06T00:02:23.703Z,5.10
2023-01-06T00:05:28.433Z,4.90
2023-01-06T00:08:30.398Z,6.30
2023-01-06T00:11:32.447Z,5.80
2023-01-06T00:14:34.200Z,6.20
2023-01-06T00:20:37.514Z,5.50
2023-01-06T00:23:39.695Z,5.70
2023-01-06T00:26:41.244Z,5.70
2023-01-06T00:32:44.523Z,5.40
2023-01-06T00:38:49.156Z,5.20
2023-01-06T00:41:50.767Z,5.00
2023-01-06T00:44:52.371Z,5.30
2023-01-06T00:47:54.185Z,4.90
2023-01-06T00:51:00.778Z,4.90
2023-01-06T00:54:02.396Z,4.60
2023-01-06T01:00:09.202Z,3.70
2023-01-06T01:03:10.943Z,4.00
2023-01-06T01:06:12.703Z,4.40
2023-01-06T01:09:16.708Z,5.00
2023-01-06T01:12:18.692Z,5.10
2023-01-06T01:18:21.931Z,4.20
2023-01-06T01:21:23.687Z,4.60
2023-01-06T01:27:26.932Z,4.00
2023-01-06T01:30:28.699Z,4.00
2023-01-06T01:33:30.614Z,3.60
2023-01-06T01:36:32.408Z,4.20
2023-01-06T01:39:34.038Z,3.60
2023-01-06T01:45:37.336Z,3.50
2023-01-06T01:51:48.658Z,3.60
2023-01-06T01:54:50.933Z,4.00
2023-01-06T01:57:59.072Z,3.90
2023-01-06T02:01:00.762Z,3.90
2023-01-06T02:04:02.754Z,4.00
2023-01-06T02:07:04.887Z,4.40
2023-01-06T02:10:14.582Z,4.00
2023-01-06T02:13:16.210Z,4.10
2023-01-06T02:16:27.594Z,4.30
2023-01-06T02:19:35.292Z,4.30
2023-01-06T02:23:05.163Z,4.30
2023-01-06T02:26:29.100Z,4.60
2023-01-06T02:29:58.457Z,4.80
2023-01-06T02:33:06.179Z,4.70
2023-01-06T02:36:30.079Z,5.50
2023-01-06T02:40:02.546Z,7.20
2023-01-06T02:43:26.359Z,6.30
2023-01-06T02:46:52.749Z,5.30
2023-01-06T02:50:07.293Z,6.10
2023-01-06T02:53:23.611Z,7.10
2023-01-06T02:56:29.631Z,4.60
2023-01-06T02:59:36.335Z,5.80
2023-01-06T03:02:40.184Z,5.40
2023-01-06T03:05:44.136Z,5.70
2023-01-06T03:08:47.561Z,5.30
2023-01-06T03:11:51.522Z,4.60
2023-01-06T03:14:55.259Z,4.80
2023-01-06T03:17:57.138Z,4.90
2023-01-06T03:21:04.266Z,4.80
2023-01-06T03:24:07.104Z,5.60
2023-01-06T03:27:09.272Z,6.70
2023-01-06T03:30:12.568Z,4.40
2023-01-06T03:33:23.711Z,4.80
2023-01-06T03:36:41.225Z,4.70
2023-01-06T03:40:09.581Z,4.60
2023-01-06T03:43:21.451Z,4.60
2023-01-06T03:49:35.084Z,4.40
2023-01-06T03:52:42.552Z,4.80
2023-01-06T03:55:46.920Z,4.70
2023-01-06T03:58:51.751Z,4.80
2023-01-06T04:01:53.379Z,4.50
2023-01-06T04:08:03.923Z,4.60
2023-01-06T04:14:07.167Z,5.00
2023-01-06T04:20:14.793Z,5.10
2023-01-06T04:23:16.487Z,4.70
2023-01-06T04:29:19.795Z,5.30
2023-01-06T04:35:23.120Z,5.10
2023-01-06T04:41:26.416Z,5.10
2023-01-06T04:44:27.989Z,6.00
2023-01-06T04:47:29.512Z,5.30
2023-01-06T04:50:31.172Z,5.30
2023-01-06T04:56:41.774Z,5.50
2023-01-06T04:59:43.370Z,5.40
2023-01-06T05:02:45.494Z,5.70
2023-01-06T05:05:47.215Z,6.20
2023-01-06T05:08:48.934Z,5.20
2023-01-06T05:14:51.958Z,5.60
2023-01-06T05:21:23.098Z,6.00
2023-01-06T05:24:24.645Z,6.30
2023-01-06T05:27:26.196Z,8.00
2023-01-06T05:30:27.847Z,7.80
2023-01-06T05:33:29.590Z,9.20
2023-01-06T05:39:32.673Z,9.30
2023-01-06T05:42:34.190Z,9.40
2023-01-06T05:45:36.887Z,9.60
2023-01-06T05:48:39.236Z,9.60
2023-01-06T05:51:40.905Z,10.30
2023-01-06T05:57:44.155Z,11.00
2023-01-06T06:00:45.739Z,11.90
2023-01-06T06:06:49.252Z,8.80
2023-01-06T06:09:50.779Z,9.00
2023-01-06T06:12:52.285Z,8.50
2023-01-06T06:16:09.983Z,8.90
2023-01-06T06:19:12.536Z,7.90
2023-01-06T06:22:14.262Z,8.20
2023-01-06T06:28:17.483Z,7.70
2023-01-06T06:31:24.736Z,7.30
2023-01-06T06:34:26.379Z,8.40
2023-01-06T06:37:28.100Z,8.90
2023-01-06T06:43:31.971Z,9.40
2023-01-06T06:46:33.542Z,8.20
2023-01-06T06:52:36.800Z,5.40
2023-01-06T06:58:40.292Z,4.80
2023-01-06T07:01:42.003Z,4.80
2023-01-06T07:04:43.769Z,4.80
2023-01-06T07:07:45.746Z,4.70
2023-01-06T07:10:47.259Z,4.70
2023-01-06T07:13:49.150Z,4.80
2023-01-06T07:16:50.624Z,4.60
2023-01-06T07:19:52.140Z,4.70
2023-01-06T07:22:53.826Z,4.60
2023-01-06T07:29:16.433Z,5.90
2023-01-06T07:32:18.113Z,5.40
2023-01-06T07:38:22.907Z,6.00
2023-01-06T07:41:24.488Z,6.00
2023-01-06T07:44:26.067Z,7.60
2023-01-06T07:47:27.855Z,6.60
2023-01-06T07:56:33.387Z,6.40
2023-01-06T08:02:36.672Z,9.70
2023-01-06T08:05:39.115Z,8.80
2023-01-06T08:08:41.279Z,8.20
2023-01-06T08:11:42.863Z,8.10
2023-01-06T08:14:44.506Z,7.40
2023-01-06T08:20:47.610Z,11.30
2023-01-06T08:23:49.187Z,9.10
2023-01-06T08:26:50.928Z,10.40
2023-01-06T08:29:52.671Z,9.30
2023-01-06T08:36:00.530Z,10.70
2023-01-06T08:39:02.185Z,9.50
2023-01-06T08:45:06.108Z,10.00
2023-01-06T08:48:07.724Z,10.60
2023-01-06T08:54:13.102Z,9.30
2023-01-06T09:00:16.677Z,10.10
2023-01-06T09:03:18.606Z,10.60
2023-01-06T09:06:21.320Z,10.10
2023-01-06T09:09:22.988Z,10.20
2023-01-06T09:15:26.216Z,9.50
2023-01-06T09:18:27.918Z,11.10
2023-01-06T09:24:30.991Z,9.00
2023-01-06T09:27:32.514Z,7.80
2023-01-06T09:30:34.076Z,7.60
2023-01-06T09:33:35.920Z,8.50
2023-01-06T09:36:37.822Z,7.70
2023-01-06T09:39:39.379Z,7.20
2023-01-06T09:42:52.823Z,7.40
2023-01-06T09:45:58.126Z,7.50
2023-01-06T09:49:21.738Z,7.40
2023-01-06T09:52:33.813Z,7.40
2023-01-06T09:55:40.866Z,7.30
2023-01-06T09:59:04.722Z,5.90
2023-01-06T10:02:11.876Z,4.90
2023-01-06T10:05:25.945Z,5.60
2023-01-06T10:08:39.384Z,6.40
2023-01-06T10:12:01.894Z,6.00
2023-01-06T10:15:11.047Z,6.00
2023-01-06T10:18:22.187Z,5.70
2023-01-06T10:21:23.972Z,5.80
2023-01-06T10:27:49.397Z,5.20
2023-01-06T10:30:53.049Z,5.50
2023-01-06T10:33:55.695Z,5.60
2023-01-06T10:37:16.151Z,5.30
2023-01-06T10:40:21.858Z,4.70
2023-01-06T10:43:23.490Z,5.20
2023-01-06T10:49:27.448Z,5.20
2023-01-06T10:55:48.107Z,5.40
2023-01-06T10:58:56.957Z,5.80
2023-01-06T11:01:58.712Z,6.20
2023-01-06T11:05:03.456Z,4.90
2023-01-06T11:08:07.833Z,4.60
2023-01-06T11:11:26.832Z,4.30
2023-01-06T11:14:31.835Z,4.70
2023-01-06T11:17:33.611Z,4.80
2023-01-06T11:20:35.279Z,5.10
2023-01-06T11:23:41.906Z,5.10
2023-01-06T11:26:45.730Z,4.70
2023-01-06T11:29:47.475Z,4.10
2023-01-06T11:35:51.244Z,4.20
2023-01-06T11:39:04.110Z,3.80
2023-01-06T11:42:12.802Z,4.60
2023-01-06T11:45:34.661Z,4.00
2023-01-06T11:48:40.576Z,5.30
2023-01-06T11:51:42.198Z,4.60
2023-01-06T12:01:07.804Z,4.30
2023-01-06T12:04:17.462Z,4.70
2023-01-06T12:07:30.950Z,4.10
2023-01-06T12:10:33.603Z,4.60
2023-01-06T12:13:44.382Z,4.20
2023-01-06T12:16:58.423Z,4.40
2023-01-06T12:20:27.552Z,4.50
2023-01-06T12:23:35.992Z,4.50
2023-01-06T12:26:37.902Z,6.00
2023-01-06T12:29:39.773Z,10.00
2023-01-06T12:32:45.233Z,4.90
2023-01-06T12:35:49.880Z,8.40
2023-01-06T12:38:57.871Z,8.60
2023-01-06T12:42:43.924Z,5.00
2023-01-06T12:45:58.421Z,4.80
2023-01-06T12:49:04.638Z,4.40
2023-01-06T12:52:12.242Z,5.00
2023-01-06T12:55:21.018Z,4.90
2023-01-06T12:58:47.950Z,4.40
2023-01-06T13:01:56.441Z,4.40
2023-01-06T13:05:04.197Z,4.70
2023-01-06T13:08:05.760Z,5.00
2023-01-06T13:11:10.080Z,4.80
2023-01-06T13:14:20.605Z,5.80
2023-01-06T13:18:04.734Z,5.70
2023-01-06T13:21:14.788Z,5.10
2023-01-06T13:24:54.461Z,5.00
2023-01-06T13:27:58.967Z,5.30
2023-01-06T13:31:15.179Z,5.80
2023-01-06T13:34:51.974Z,6.00
2023-01-06T13:38:04.079Z,5.50
2023-01-06T13:41:10.518Z,5.80
2023-01-06T13:44:20.113Z,5.50
2023-01-06T13:47:22.769Z,6.20
2023-01-06T13:50:24.444Z,6.00
2023-01-06T13:56:29.643Z,6.20
2023-01-06T13:59:51.762Z,7.50
2023-01-06T14:02:53.362Z,7.80
2023-01-06T14:08:59.042Z,5.70
2023-01-06T14:12:14.581Z,5.70
2023-01-06T14:15:23.544Z,5.90
2023-01-06T14:18:34.288Z,7.10
2023-01-06T14:21:35.892Z,6.40
2023-01-06T14:27:48.297Z,6.60
2023-01-06T14:30:52.219Z,7.00
2023-01-06T14:33:59.257Z,7.50
2023-01-06T14:37:02.704Z,7.50
2023-01-06T14:40:05.983Z,10.30
2023-01-06T14:43:28.686Z,10.40
2023-01-06T14:46:33.665Z,14.90
2023-01-06T14:49:46.081Z,13.50
2023-01-06T14:53:20.847Z,13.40
2023-01-06T14:56:24.700Z,17.60
2023-01-06T14:59:27.077Z,18.40
2023-01-06T15:02:29.041Z,27.30
2023-01-06T15:05:35.005Z,20.60
2023-01-06T15:08:36.706Z,18.70
2023-01-06T15:14:41.904Z,37.00
2023-01-06T15:17:43.656Z,24.40
2023-01-06T15:23:49.079Z,20.50
2023-01-06T15:26:52.205Z,16.40
2023-01-06T15:29:56.054Z,16.50
2023-01-06T15:32:57.910Z,15.90
2023-01-06T15:36:00.140Z,17.80
2023-01-06T15:39:03.459Z,19.40
2023-01-06T15:42:06.012Z,12.60
2023-01-06T15:45:23.038Z,13.00
2023-01-06T15:48:28.734Z,12.60
2023-01-06T15:51:30.284Z,12.00
2023-01-06T15:54:34.277Z,12.20
2023-01-06T15:57:39.637Z,11.10
2023-01-06T16:00:43.523Z,14.50
2023-01-06T16:03:53.811Z,18.60
2023-01-06T16:06:55.368Z,16.60
2023-01-06T16:09:56.891Z,21.40
2023-01-06T16:13:16.988Z,28.20
2023-01-06T16:16:18.501Z,26.70
2023-01-06T16:19:22.460Z,50.20
2023-01-06T16:22:54.329Z,34.20
2023-01-06T16:26:10.666Z,39.40
2023-01-06T16:30:07.353Z,65.50
2023-01-06T16:33:38.089Z,53.40
2023-01-06T16:36:39.862Z,35.70
2023-01-06T16:42:43.572Z,25.80
2023-01-06T16:45:46.514Z,22.40
2023-01-06T16:48:48.618Z,34.60
2023-01-06T16:51:50.707Z,36.30
2023-01-06T16:54:53.477Z,25.80
2023-01-06T16:57:56.241Z,20.10
2023-01-06T17:01:12.756Z,21.90
2023-01-06T17:04:15.587Z,25.30
2023-01-06T17:07:17.288Z,22.10
2023-01-06T17:10:20.822Z,20.00
2023-01-06T17:13:22.590Z,19.60
2023-01-06T17:16:25.540Z,24.80
2023-01-06T17:19:29.419Z,28.50
2023-01-06T17:22:31.349Z,24.00
2023-01-06T17:28:34.718Z,21.70
2023-01-06T17:31:41.883Z,30.30
2023-01-06T17:34:44.037Z,36.40
2023-01-06T17:37:45.835Z,42.60
2023-01-06T17:40:48.362Z,40.30
2023-01-06T17:43:49.892Z,32.10
2023-01-06T17:46:51.632Z,30.40
2023-01-06T17:49:57.715Z,28.90
2023-01-06T17:53:17.609Z,33.40
2023-01-06T17:56:21.782Z,33.70
2023-01-06T17:59:23.448Z,37.70
2023-01-06T18:02:33.924Z,43.60
2023-01-06T18:05:35.579Z,54.60
2023-01-06T18:08:37.969Z,69.50
2023-01-06T18:11:50.906Z,64.50
2023-01-06T18:14:53.063Z,54.00
2023-01-06T18:17:55.827Z,43.90
2023-01-06T18:21:04.704Z,36.50
2023-01-06T18:24:35.258Z,27.00
2023-01-06T18:27:37.030Z,26.40
2023-01-06T18:33:40.257Z,30.50
2023-01-06T18:36:44.693Z,30.00
2023-01-06T18:39:48.344Z,33.30
2023-01-06T18:42:51.490Z,37.10
2023-01-06T18:45:54.916Z,40.80
2023-01-06T18:48:56.474Z,41.30
2023-01-06T18:51:58.497Z,42.00
2023-01-06T18:55:00.121Z,38.60
2023-01-06T19:01:15.966Z,39.00
2023-01-06T19:04:30.676Z,39.80
2023-01-06T19:07:33.897Z,37.50
2023-01-06T19:10:35.466Z,36.70
2023-01-06T19:13:38.014Z,39.10
2023-01-06T19:16:50.812Z,41.40
2023-01-06T19:19:53.012Z,39.60
2023-01-06T19:22:55.832Z,40.20
2023-01-06T19:26:17.122Z,40.20
2023-01-06T19:29:18.853Z,39.00
2023-01-06T19:35:23.129Z,36.80
2023-01-06T19:38:28.452Z,36.00
2023-01-06T19:41:32.667Z,43.20
2023-01-06T19:44:36.566Z,56.10
2023-01-06T19:47:40.034Z,63.20
2023-01-06T19:50:41.634Z,64.50
2023-01-06T19:53:59.635Z,81.90
2023-01-06T19:57:01.264Z,85.30
2023-01-06T20:03:30.568Z,64.50
2023-01-06T20:06:32.148Z,67.20
2023-01-06T20:09:34.187Z,55.40
2023-01-06T20:12:36.266Z,52.80
2023-01-06T20:15:38.790Z,54.80
2023-01-06T20:18:40.412Z,49.50
2023-01-06T20:21:42.853Z,48.00
2023-01-06T20:24:44.488Z,41.90
2023-01-06T20:30:47.552Z,46.80
2023-01-06T20:33:49.138Z,50.90
2023-01-06T20:39:52.385Z,49.50
2023-01-06T20:42:54.024Z,51.30
2023-01-06T20:48:57.397Z,47.70
2023-01-06T20:55:01.066Z,50.30
2023-01-06T20:58:02.925Z,61.40
2023-01-06T21:01:04.720Z,69.10
2023-01-06T21:04:06.364Z,70.60
2023-01-06T21:07:08.097Z,64.70
2023-01-06T21:13:11.340Z,53.70
2023-01-06T21:19:14.645Z,46.50
2023-01-06T21:22:16.363Z,47.90
2023-01-06T21:25:18.097Z,52.70
2023-01-06T21:28:19.789Z,50.10
2023-01-06T21:34:23.119Z,54.80
2023-01-06T21:37:24.835Z,50.00
2023-01-06T21:40:26.470Z,47.00
2023-01-06T21:46:30.514Z,48.60
2023-01-06T21:49:32.615Z,50.10
2023-01-06T21:52:34.308Z,49.30
2023-01-06T21:58:37.776Z,42.90
2023-01-06T22:07:45.974Z,45.90
2023-01-06T22:10:47.786Z,47.50
2023-01-06T22:13:49.723Z,46.40
2023-01-06T22:16:51.637Z,49.00
2023-01-06T22:19:54.302Z,50.30
2023-01-06T22:22:55.995Z,51.50
2023-01-06T22:28:59.114Z,62.40
2023-01-06T22:35:04.176Z,55.90
2023-01-06T22:38:05.929Z,55.40
2023-01-06T22:41:07.528Z,52.20
2023-01-06T22:47:10.610Z,51.90
2023-01-06T22:50:12.234Z,51.50
2023-01-06T22:56:15.445Z,52.00
2023-01-06T23:08:22.932Z,49.90
2023-01-06T23:11:24.563Z,50.20
2023-01-06T23:17:27.697Z,52.10
2023-01-06T23:23:32.169Z,50.40
2023-01-06T23:26:38.965Z,51.60
2023-01-06T23:29:40.683Z,49.90
2023-01-06T23:35:43.770Z,43.90
2023-01-06T23:41:48.024Z,44.50
2023-01-06T23:44:49.612Z,41.30
2023-01-06T23:50:53.215Z,42.40
2023-01-06T23:53:55.312Z,41.10
2023-01-06T23:56:56.863Z,40.40
